Terminal Aerodrome Forecast
Issued by NWS Louisville, KY

Home | Current Version | Previous Version | Text Only | Print | Product List | Glossary On
Versions: 1 2 3 4 5 6 7 8 9 10 11 12 13 14 15 16 17 18 19 20 21 22 23
595
FTUS43 KLMK 171123
TAFSDF
TAF
KSDF 171123Z 1712/1818 11008KT P6SM BKN015
     FM171600 16010KT P6SM FEW025 SCT150
     FM180100 17012KT P6SM BKN120 WS020/20045KT
     FM180700 19014G25KT P6SM VCSH BKN080 WS020/20052KT
     FM181200 19020G30KT P6SM -SHRA BKN035=

USA.gov is the U.S. government's official web portal to all federal, state and local government web resources and services.